Time;durP1;ratioP1;P1;durP2;ratioP2;P2;SDS_P1;SDS_P2;PMS_P1;PMS_P2;Temp;Humidity;BMP_temperature;BMP_pressure;BME280_temperature;BME280_humidity;BME280_pressure;Samples;Min_cycle;Max_cycle;Signal;HPM_P1;HPM_P2
2022/05/30 00:01:57;;;;;;;2.83;1.53;;;;;;;;;;5034578;28;20245;-67
2022/05/30 00:04:23;;;;;;;3.43;1.40;;;;;;;;;;5034593;28;20182;-66
2022/05/30 00:06:49;;;;;;;6.83;2.00;;;;;;;;;;5052648;28;20175;-66
2022/05/30 00:09:15;;;;;;;4.43;1.77;;;;;;;;;;5037704;28;20213;-66
2022/05/30 00:11:41;;;;;;;5.80;1.80;;;;;;;;;;5056122;28;20259;-65
2022/05/30 00:14:07;;;;;;;7.47;2.13;;;;;;;;;;5038286;28;20210;-66
2022/05/30 00:16:34;;;;;;;3.33;1.50;;;;;;;;;;5056137;28;20225;-65
2022/05/30 00:19:00;;;;;;;2.80;1.57;;;;;;;;;;5038243;28;20190;-65
2022/05/30 00:21:26;;;;;;;3.50;1.67;;;;;;;;;;5056661;28;20178;-66
2022/05/30 00:23:53;;;;;;;3.73;1.80;;;;;;;;;;5037922;28;20194;-66
2022/05/30 00:26:19;;;;;;;3.90;1.67;;;;;;;;;;5056179;28;20640;-65
2022/05/30 00:28:45;;;;;;;4.67;1.80;;;;;;;;;;5055894;28;20200;-66
2022/05/30 00:31:13;;;;;;;3.70;1.67;;;;;;;;;;5055869;28;20292;-66
2022/05/30 00:33:39;;;;;;;8.23;2.20;;;;;;;;;;5038107;28;20210;-66
2022/05/30 00:36:05;;;;;;;2.10;1.50;;;;;;;;;;5056538;28;20174;-66
2022/05/30 00:38:31;;;;;;;4.03;1.77;;;;;;;;;;5055995;28;20257;-66
2022/05/30 00:40:57;;;;;;;5.93;2.10;;;;;;;;;;5038125;28;20720;-66
2022/05/30 00:43:23;;;;;;;2.93;1.73;;;;;;;;;;5055745;28;20201;-66
2022/05/30 00:45:49;;;;;;;5.90;2.10;;;;;;;;;;5037766;28;20190;-66
2022/05/30 00:48:16;;;;;;;4.80;1.97;;;;;;;;;;5055599;28;20750;-67
2022/05/30 00:50:43;;;;;;;4.37;1.97;;;;;;;;;;5037722;28;20238;-66
2022/05/30 00:53:09;;;;;;;5.43;2.13;;;;;;;;;;5055682;28;20186;-66
2022/05/30 00:55:35;;;;;;;5.17;2.23;;;;;;;;;;5055669;28;20232;-66
2022/05/30 00:58:02;;;;;;;5.03;2.07;;;;;;;;;;5055353;28;20185;-66
2022/05/30 01:00:28;;;;;;;3.03;1.93;;;;;;;;;;5055686;28;20174;-66
2022/05/30 01:08:26;;;;;;;6.87;2.23;;;;;;;;;;5055615;28;20686;-66
2022/05/30 01:10:52;;;;;;;10.70;2.60;;;;;;;;;;5055633;28;20198;-65
2022/05/30 01:13:18;;;;;;;6.73;2.30;;;;;;;;;;5037810;28;20199;-65
2022/05/30 01:15:44;;;;;;;11.47;2.63;;;;;;;;;;5055435;28;20204;-65
2022/05/30 01:18:13;;;;;;;6.13;2.40;;;;;;;;;;5055019;28;20186;-65
2022/05/30 01:20:42;;;;;;;4.20;2.00;;;;;;;;;;5055334;28;20192;-65
2022/05/30 01:23:11;;;;;;;6.53;2.20;;;;;;;;;;5055091;28;20198;-65
2022/05/30 01:25:59;;;;;;;5.00;1.80;;;;;;;;;;5054969;28;20183;-66
2022/05/30 01:28:40;;;;;;;4.77;1.77;;;;;;;;;;5037017;28;20642;-66
2022/05/30 01:31:06;;;;;;;3.70;1.70;;;;;;;;;;5054769;28;20198;-66
2022/05/30 01:33:32;;;;;;;2.93;1.57;;;;;;;;;;5054629;28;20217;-66
2022/05/30 01:35:58;;;;;;;4.67;1.93;;;;;;;;;;5036746;28;20266;-66
2022/05/30 01:38:24;;;;;;;3.93;1.70;;;;;;;;;;5054598;28;20272;-66
2022/05/30 01:40:51;;;;;;;3.23;1.80;;;;;;;;;;5036717;28;20297;-65
2022/05/30 01:43:17;;;;;;;2.07;1.60;;;;;;;;;;5036585;28;20204;-66
2022/05/30 01:45:44;;;;;;;2.40;1.70;;;;;;;;;;5054399;28;20197;-65
2022/05/30 01:48:10;;;;;;;7.17;2.20;;;;;;;;;;5036592;28;20179;-65
2022/05/30 01:50:36;;;;;;;4.50;2.27;;;;;;;;;;5054890;28;20280;-66
2022/05/30 01:53:02;;;;;;;6.57;3.23;;;;;;;;;;5036577;28;20654;-66
2022/05/30 01:55:28;;;;;;;8.33;3.20;;;;;;;;;;5036641;28;20193;-65
2022/05/30 01:57:54;;;;;;;5.80;2.90;;;;;;;;;;5054171;28;20257;-66
2022/05/30 02:00:20;;;;;;;2.30;1.60;;;;;;;;;;5036340;28;20190;-65
2022/05/30 02:02:46;;;;;;;2.60;1.43;;;;;;;;;;5036362;28;20202;-66
2022/05/30 02:05:12;;;;;;;6.10;1.67;;;;;;;;;;5054526;28;20552;-66
2022/05/30 02:07:38;;;;;;;6.07;2.10;;;;;;;;;;5054713;28;20186;-66
2022/05/30 02:10:05;;;;;;;3.77;1.73;;;;;;;;;;5036187;28;20198;-66
2022/05/30 02:12:31;;;;;;;1.40;1.30;;;;;;;;;;5054088;28;20242;-66
2022/05/30 02:14:57;;;;;;;5.53;1.60;;;;;;;;;;5053894;28;20552;-65
2022/05/30 02:17:23;;;;;;;3.50;1.63;;;;;;;;;;5036467;28;20174;-66
2022/05/30 02:19:49;;;;;;;3.80;1.67;;;;;;;;;;5053973;28;20232;-65
2022/05/30 02:22:17;;;;;;;3.87;1.83;;;;;;;;;;5054095;28;20202;-65
2022/05/30 02:24:43;;;;;;;4.83;1.47;;;;;;;;;;5053827;28;20642;-65
2022/05/30 02:27:11;;;;;;;4.57;1.53;;;;;;;;;;5053808;28;20224;-66
2022/05/30 02:29:37;;;;;;;3.37;1.57;;;;;;;;;;5035572;28;20178;-65
2022/05/30 02:32:03;;;;;;;3.87;1.50;;;;;;;;;;5052774;28;20214;-65
2022/05/30 02:37:14;;;;;;;1.67;1.20;;;;;;;;;;5081222;22;21274;-66
2022/05/30 02:39:40;;;;;;;6.13;2.03;;;;;;;;;;5074453;28;20204;-66
2022/05/30 02:42:07;;;;;;;4.73;1.50;;;;;;;;;;5074283;28;20177;-66
2022/05/30 02:44:33;;;;;;;5.53;1.90;;;;;;;;;;5073944;28;20253;-65
2022/05/30 02:46:59;;;;;;;5.23;1.90;;;;;;;;;;5073861;28;20208;-65
2022/05/30 02:49:26;;;;;;;2.80;1.80;;;;;;;;;;5074018;28;20178;-65
2022/05/30 02:51:52;;;;;;;5.93;1.80;;;;;;;;;;5056061;28;20213;-66
2022/05/30 02:54:18;;;;;;;3.83;1.77;;;;;;;;;;5074480;28;20173;-67
2022/05/30 02:56:49;;;;;;;2.63;1.60;;;;;;;;;;5060943;28;20201;-68
2022/05/30 02:59:15;;;;;;;5.37;1.90;;;;;;;;;;5055871;28;20197;-66
2022/05/30 03:01:41;;;;;;;2.20;1.37;;;;;;;;;;5073486;28;20188;-66
2022/05/30 03:04:07;;;;;;;3.07;1.30;;;;;;;;;;5073261;28;20174;-66
2022/05/30 03:06:33;;;;;;;3.60;1.40;;;;;;;;;;5055489;28;20181;-65
2022/05/30 03:08:59;;;;;;;3.43;1.67;;;;;;;;;;5055283;28;20240;-66
2022/05/30 03:11:26;;;;;;;4.67;2.00;;;;;;;;;;5055184;28;20255;-66
2022/05/30 03:13:52;;;;;;;3.67;1.80;;;;;;;;;;5073285;28;20265;-65
2022/05/30 03:16:18;;;;;;;4.27;1.80;;;;;;;;;;5073262;28;20642;-65
2022/05/30 03:18:44;;;;;;;4.87;2.00;;;;;;;;;;5073206;28;20200;-66
2022/05/30 03:21:10;;;;;;;5.47;1.63;;;;;;;;;;5055727;28;20551;-67
2022/05/30 03:23:37;;;;;;;6.80;1.80;;;;;;;;;;5055252;28;20708;-66
2022/05/30 03:26:03;;;;;;;6.27;2.07;;;;;;;;;;5055537;28;20181;-66
2022/05/30 03:28:31;;;;;;;3.23;2.13;;;;;;;;;;5073474;28;20681;-67
2022/05/30 03:30:57;;;;;;;5.93;1.73;;;;;;;;;;5055922;28;20281;-67
2022/05/30 03:33:23;;;;;;;2.27;1.50;;;;;;;;;;5073176;28;20296;-67
2022/05/30 03:35:49;;;;;;;5.10;1.93;;;;;;;;;;5073047;28;20516;-66
2022/05/30 03:38:15;;;;;;;8.23;1.80;;;;;;;;;;5072979;28;20551;-66
2022/05/30 03:40:41;;;;;;;11.47;2.63;;;;;;;;;;5054987;28;20291;-67
2022/05/30 03:43:09;;;;;;;6.10;1.43;;;;;;;;;;5075933;28;20645;-66
2022/05/30 03:45:36;;;;;;;4.27;1.80;;;;;;;;;;5076802;28;20185;-67
2022/05/30 03:48:02;;;;;;;6.37;1.60;;;;;;;;;;5059186;28;20551;-66
2022/05/30 03:50:28;;;;;;;4.67;1.67;;;;;;;;;;5076760;28;20200;-67
2022/05/30 03:52:54;;;;;;;3.03;1.60;;;;;;;;;;5059080;28;20178;-67
2022/05/30 03:55:22;;;;;;;9.47;2.17;;;;;;;;;;5058703;28;20216;-66
2022/05/30 03:57:48;;;;;;;7.40;1.83;;;;;;;;;;5077243;28;20193;-66
2022/05/30 04:00:19;;;;;;;5.17;1.90;;;;;;;;;;5076559;28;20530;-66
2022/05/30 04:02:49;;;;;;;3.37;1.60;;;;;;;;;;5077113;28;20697;-68
2022/05/30 04:05:15;;;;;;;5.07;2.00;;;;;;;;;;5059887;28;20227;-67
2022/05/30 04:07:41;;;;;;;5.83;1.80;;;;;;;;;;5058743;28;20202;-63
2022/05/30 04:10:08;;;;;;;5.20;2.17;;;;;;;;;;5076597;28;20205;-63
2022/05/30 04:12:34;;;;;;;3.53;1.77;;;;;;;;;;5058348;28;20200;-64
2022/05/30 04:15:00;;;;;;;5.20;2.33;;;;;;;;;;5076198;28;20754;-63
2022/05/30 04:17:27;;;;;;;5.23;1.80;;;;;;;;;;5076216;28;20194;-63
2022/05/30 04:19:53;;;;;;;5.63;1.73;;;;;;;;;;5058284;28;20269;-63
2022/05/30 04:22:20;;;;;;;4.37;2.00;;;;;;;;;;5076387;28;20212;-64
2022/05/30 04:24:46;;;;;;;4.13;1.90;;;;;;;;;;5076018;28;20205;-64
2022/05/30 04:27:13;;;;;;;2.00;1.50;;;;;;;;;;5076028;28;20259;-64
2022/05/30 04:29:39;;;;;;;5.63;1.63;;;;;;;;;;5076527;28;20196;-64
2022/05/30 04:32:05;;;;;;;7.03;2.23;;;;;;;;;;5076224;28;20185;-64
2022/05/30 04:34:32;;;;;;;4.00;1.83;;;;;;;;;;5058125;28;20530;-64
2022/05/30 04:36:58;;;;;;;8.93;2.23;;;;;;;;;;5075947;28;20174;-63
2022/05/30 04:39:24;;;;;;;3.17;2.30;;;;;;;;;;5075889;28;20170;-64
2022/05/30 04:41:50;;;;;;;2.90;1.83;;;;;;;;;;5057937;28;20182;-64
2022/05/30 04:44:16;;;;;;;4.50;1.77;;;;;;;;;;5058011;28;20268;-64
2022/05/30 04:46:42;;;;;;;4.30;1.87;;;;;;;;;;5057853;28;20186;-64
2022/05/30 04:49:08;;;;;;;6.80;1.90;;;;;;;;;;5075403;28;20208;-65
2022/05/30 04:51:34;;;;;;;7.80;2.37;;;;;;;;;;5057620;28;20288;-66
2022/05/30 04:54:00;;;;;;;5.37;1.80;;;;;;;;;;5074827;28;20174;-65
2022/05/30 04:56:26;;;;;;;1.77;1.50;;;;;;;;;;5075416;28;20178;-66
2022/05/30 04:58:52;;;;;;;6.80;1.77;;;;;;;;;;5075738;28;20558;-65
2022/05/30 05:01:18;;;;;;;4.50;1.90;;;;;;;;;;5075558;28;20181;-65
2022/05/30 05:03:45;;;;;;;3.73;1.90;;;;;;;;;;5075677;28;20285;-64
2022/05/30 05:06:13;;;;;;;4.90;1.80;;;;;;;;;;5057581;28;20178;-67
2022/05/30 05:09:03;;;;;;;3.47;2.03;;;;;;;;;;5057415;28;20288;-64
2022/05/30 05:11:31;;;;;;;4.30;1.97;;;;;;;;;;5030002;28;20639;-64
2022/05/30 05:13:57;;;;;;;6.73;2.20;;;;;;;;;;5075627;28;20181;-65
2022/05/30 05:16:28;;;;;;;6.13;2.30;;;;;;;;;;5075179;28;20246;-65
2022/05/30 05:18:54;;;;;;;4.30;2.00;;;;;;;;;;5075309;28;20760;-65
2022/05/30 05:21:33;;;;;;;7.90;2.23;;;;;;;;;;5075575;28;20178;-65
2022/05/30 05:24:00;;;;;;;5.60;2.10;;;;;;;;;;5075446;28;20173;-66
2022/05/30 05:26:26;;;;;;;5.97;2.00;;;;;;;;;;5057391;28;20596;-65
2022/05/30 05:28:52;;;;;;;7.47;2.17;;;;;;;;;;5074841;28;20566;-65
2022/05/30 05:31:22;;;;;;;4.17;2.03;;;;;;;;;;5074775;28;20197;-65
2022/05/30 05:33:48;;;;;;;3.97;2.00;;;;;;;;;;5074694;28;20185;-65
2022/05/30 05:36:22;;;;;;;3.17;1.73;;;;;;;;;;5056827;28;20715;-65
2022/05/30 05:38:48;;;;;;;3.00;1.77;;;;;;;;;;5074644;28;20244;-65
2022/05/30 05:41:14;;;;;;;4.20;2.00;;;;;;;;;;5074631;28;20178;-65
2022/05/30 05:43:40;;;;;;;4.90;2.30;;;;;;;;;;5074809;28;20556;-65
2022/05/30 05:46:12;;;;;;;6.03;2.20;;;;;;;;;;5056761;28;20190;-67
2022/05/30 05:48:37;;;;;;;2.33;1.63;;;;;;;;;;5074634;28;20197;-63
2022/05/30 05:51:04;;;;;;;4.50;1.67;;;;;;;;;;5074573;28;20685;-64
2022/05/30 05:53:30;;;;;;;3.87;1.83;;;;;;;;;;5056617;28;20184;-66
2022/05/30 05:55:56;;;;;;;2.80;1.50;;;;;;;;;;5074576;28;20174;-66
2022/05/30 05:58:22;;;;;;;3.47;1.43;;;;;;;;;;5074457;28;20200;-66
2022/05/30 06:00:48;;;;;;;1.87;1.73;;;;;;;;;;5074668;28;20185;-64
2022/05/30 06:03:14;;;;;;;3.83;1.67;;;;;;;;;;5074559;28;20560;-65
2022/05/30 06:05:40;;;;;;;6.20;1.60;;;;;;;;;;5074466;28;20173;-66
2022/05/30 06:08:06;;;;;;;3.43;1.40;;;;;;;;;;5074947;28;20202;-65
2022/05/30 06:11:04;;;;;;;5.07;1.60;;;;;;;;;;5057469;28;20201;-66
2022/05/30 06:13:19;;;;;;;3.00;1.60;;;;;;;;;;5074545;28;20281;-66
2022/05/30 06:15:45;;;;;;;3.47;1.60;;;;;;;;;;5057171;28;20206;-65
2022/05/30 06:18:10;;;;;;;3.57;1.57;;;;;;;;;;5078625;28;20687;-65
2022/05/30 06:20:37;;;;;;;3.07;1.60;;;;;;;;;;5080697;28;20212;-66
2022/05/30 06:23:03;;;;;;;4.17;1.57;;;;;;;;;;5081035;28;20173;-65
2022/05/30 06:25:29;;;;;;;2.23;1.30;;;;;;;;;;5082003;28;20185;-66
2022/05/30 06:27:55;;;;;;;4.77;1.80;;;;;;;;;;5064304;28;20220;-65
2022/05/30 06:30:21;;;;;;;4.23;1.60;;;;;;;;;;5078659;28;20193;-65
2022/05/30 06:32:47;;;;;;;2.17;1.40;;;;;;;;;;5078514;28;20177;-65
2022/05/30 06:35:13;;;;;;;3.13;1.47;;;;;;;;;;5076986;28;20257;-64
2022/05/30 06:37:39;;;;;;;6.83;1.80;;;;;;;;;;5075235;28;20209;-65
2022/05/30 06:40:05;;;;;;;4.93;2.00;;;;;;;;;;5056247;28;20181;-64
2022/05/30 06:42:31;;;;;;;3.40;1.60;;;;;;;;;;5074120;28;20261;-63
2022/05/30 06:44:57;;;;;;;3.17;1.53;;;;;;;;;;5073968;28;20265;-68
2022/05/30 06:47:23;;;;;;;4.17;1.97;;;;;;;;;;5074094;28;20202;-66
2022/05/30 06:49:50;;;;;;;3.60;1.60;;;;;;;;;;5073577;28;20181;-64
2022/05/30 06:52:17;;;;;;;4.67;1.80;;;;;;;;;;5074252;28;20208;-68
2022/05/30 06:54:42;;;;;;;3.43;1.63;;;;;;;;;;5055821;28;20561;-66
2022/05/30 06:59:54;;;;;;;2.33;1.63;;;;;;;;;;5074388;28;20253;-66
2022/05/30 07:02:19;;;;;;;4.80;1.40;;;;;;;;;;5055762;28;20619;-66
2022/05/30 07:04:45;;;;;;;5.83;1.70;;;;;;;;;;5056394;28;20272;-64
2022/05/30 07:07:11;;;;;;;4.03;1.70;;;;;;;;;;5074270;28;20661;-64
2022/05/30 07:09:38;;;;;;;2.17;1.50;;;;;;;;;;5074197;28;20177;-63
2022/05/30 07:12:06;;;;;;;1.97;1.43;;;;;;;;;;5073816;28;20559;-62
2022/05/30 07:14:32;;;;;;;3.17;1.40;;;;;;;;;;5073966;28;20247;-64
2022/05/30 07:16:58;;;;;;;7.90;1.80;;;;;;;;;;5059010;28;20177;-63
2022/05/30 07:19:24;;;;;;;4.27;1.57;;;;;;;;;;5081581;28;20170;-65
2022/05/30 07:21:50;;;;;;;5.13;1.83;;;;;;;;;;5080058;28;20177;-64
2022/05/30 07:24:16;;;;;;;3.17;1.50;;;;;;;;;;5080156;28;20177;-65
2022/05/30 07:26:42;;;;;;;6.63;1.87;;;;;;;;;;5080252;28;20299;-65
2022/05/30 07:29:08;;;;;;;2.67;1.40;;;;;;;;;;5080469;28;20197;-64
2022/05/30 07:31:34;;;;;;;4.83;1.87;;;;;;;;;;5062118;28;20201;-65
2022/05/30 07:34:00;;;;;;;2.93;1.60;;;;;;;;;;5079764;28;20257;-64
2022/05/30 07:36:28;;;;;;;2.60;1.40;;;;;;;;;;5080264;28;20630;-66
2022/05/30 07:38:54;;;;;;;2.63;1.40;;;;;;;;;;5079617;28;20243;-64
2022/05/30 07:41:21;;;;;;;6.03;2.00;;;;;;;;;;5061718;28;20703;-63
2022/05/30 07:43:47;;;;;;;4.97;1.73;;;;;;;;;;5079796;28;20185;-65
2022/05/30 07:46:14;;;;;;;3.10;1.33;;;;;;;;;;5080043;28;20196;-65
2022/05/30 07:48:40;;;;;;;2.47;1.50;;;;;;;;;;5062026;28;20205;-64
2022/05/30 07:51:06;;;;;;;3.33;1.43;;;;;;;;;;5080507;28;20200;-65
2022/05/30 07:53:33;;;;;;;3.43;1.57;;;;;;;;;;5079608;28;20174;-64
2022/05/30 07:55:59;;;;;;;2.40;1.40;;;;;;;;;;5079645;28;20188;-64
2022/05/30 07:58:26;;;;;;;2.30;1.50;;;;;;;;;;5079418;28;20197;-62
2022/05/30 08:00:52;;;;;;;5.47;1.30;;;;;;;;;;5079965;28;20178;-65
2022/05/30 08:03:19;;;;;;;4.40;1.73;;;;;;;;;;5061619;28;20178;-65
2022/05/30 08:05:47;;;;;;;2.57;1.27;;;;;;;;;;5079570;28;20582;-64
2022/05/30 08:08:13;;;;;;;3.23;1.30;;;;;;;;;;5079732;28;20202;-64
2022/05/30 08:10:39;;;;;;;4.40;1.43;;;;;;;;;;5061444;28;20616;-64
2022/05/30 08:13:05;;;;;;;4.10;1.70;;;;;;;;;;5079956;28;20169;-64
2022/05/30 08:15:31;;;;;;;3.97;1.40;;;;;;;;;;5079767;28;20174;-66
2022/05/30 08:17:58;;;;;;;2.93;1.40;;;;;;;;;;5079721;28;20197;-66
2022/05/30 08:20:25;;;;;;;2.13;1.20;;;;;;;;;;5079732;28;20589;-65
2022/05/30 08:22:51;;;;;;;3.53;1.43;;;;;;;;;;5080032;28;20182;-65
2022/05/30 08:25:17;;;;;;;2.27;1.43;;;;;;;;;;5079738;28;20264;-65
2022/05/30 08:27:44;;;;;;;1.83;1.40;;;;;;;;;;5060525;28;20208;-65
2022/05/30 08:30:12;;;;;;;2.87;1.40;;;;;;;;;;5075398;28;20285;-65
2022/05/30 08:32:42;;;;;;;4.10;1.80;;;;;;;;;;5076466;28;20181;-64
2022/05/30 08:35:09;;;;;;;4.37;1.77;;;;;;;;;;5058209;28;20174;-65
2022/05/30 08:37:37;;;;;;;7.23;1.70;;;;;;;;;;5076009;28;20209;-64
2022/05/30 08:42:57;;;;;;;2.50;1.50;;;;;;;;;;5076103;28;20185;-64
2022/05/30 08:45:25;;;;;;;2.80;1.60;;;;;;;;;;5075908;28;20661;-68
2022/05/30 08:47:55;;;;;;;1.47;1.30;;;;;;;;;;5076065;28;20186;-65
2022/05/30 08:50:36;;;;;;;5.37;1.50;;;;;;;;;;5058067;28;20201;-65
2022/05/30 08:53:21;;;;;;;2.40;1.50;;;;;;;;;;5076103;28;20242;-64
2022/05/30 08:55:53;;;;;;;4.43;1.40;;;;;;;;;;5057739;28;20202;-63
2022/05/30 08:58:38;;;;;;;3.53;1.40;;;;;;;;;;5057550;28;20198;-64
2022/05/30 09:01:10;;;;;;;3.47;1.30;;;;;;;;;;5092301;22;20235;-69
2022/05/30 09:03:38;;;;;;;2.87;1.20;;;;;;;;;;5075672;28;20166;-66
2022/05/30 09:06:09;;;;;;;2.07;1.40;;;;;;;;;;5075329;28;20542;-66
2022/05/30 09:08:40;;;;;;;2.60;1.50;;;;;;;;;;5075120;28;20261;-66
2022/05/30 09:11:10;;;;;;;5.80;1.70;;;;;;;;;;5057251;28;20245;-67
2022/05/30 09:13:43;;;;;;;1.40;1.20;;;;;;;;;;5075236;28;20181;-67
2022/05/30 09:16:34;;;;;;;1.63;1.40;;;;;;;;;;5075390;28;20181;-67
2022/05/30 09:19:00;;;;;;;3.87;1.43;;;;;;;;;;5057182;28;20174;-67
2022/05/30 09:21:28;;;;;;;3.40;1.47;;;;;;;;;;5075401;28;20244;-66
2022/05/30 09:23:54;;;;;;;5.17;1.40;;;;;;;;;;5075241;28;20174;-66
2022/05/30 09:26:25;;;;;;;2.63;1.30;;;;;;;;;;5075296;28;20178;-66
2022/05/30 09:28:52;;;;;;;2.03;1.30;;;;;;;;;;5056969;28;20174;-67
2022/05/30 09:31:18;;;;;;;3.00;1.30;;;;;;;;;;5074518;28;20205;-66
2022/05/30 09:33:47;;;;;;;4.17;1.40;;;;;;;;;;5075180;28;20184;-66
2022/05/30 09:36:27;;;;;;;4.00;1.73;;;;;;;;;;5056978;28;20699;-66
2022/05/30 09:39:00;;;;;;;1.53;1.03;;;;;;;;;;5074713;28;20545;-66
2022/05/30 09:41:38;;;;;;;2.87;1.50;;;;;;;;;;5074311;28;20573;-66
2022/05/30 09:44:20;;;;;;;3.23;1.63;;;;;;;;;;5056699;28;20193;-66
2022/05/30 09:46:53;;;;;;;2.90;1.47;;;;;;;;;;5074378;28;20665;-66
2022/05/30 09:49:39;;;;;;;1.87;1.50;;;;;;;;;;5056384;28;20182;-66
2022/05/30 09:52:22;;;;;;;3.50;1.57;;;;;;;;;;5056287;28;20213;-66
2022/05/30 09:54:48;;;;;;;1.87;1.50;;;;;;;;;;5074438;28;20169;-66
2022/05/30 09:57:18;;;;;;;3.03;1.60;;;;;;;;;;5056185;28;20236;-67
2022/05/30 09:59:46;;;;;;;2.97;1.57;;;;;;;;;;5056393;28;20271;-66
2022/05/30 10:02:23;;;;;;;7.40;1.57;;;;;;;;;;5056357;28;20576;-66
2022/05/30 10:04:54;;;;;;;2.20;1.40;;;;;;;;;;5074164;28;20600;-66
2022/05/30 10:07:21;;;;;;;3.13;1.80;;;;;;;;;;5056353;28;20170;-66
2022/05/30 10:09:55;;;;;;;4.00;1.60;;;;;;;;;;5056159;28;20234;-66
2022/05/30 10:12:29;;;;;;;2.77;1.60;;;;;;;;;;5074010;28;20194;-66
2022/05/30 10:14:54;;;;;;;2.77;1.37;;;;;;;;;;5074084;28;20176;-66
2022/05/30 10:17:26;;;;;;;4.03;1.47;;;;;;;;;;5074206;28;20174;-66
2022/05/30 10:19:53;;;;;;;3.80;1.60;;;;;;;;;;5073916;28;20161;-66
2022/05/30 10:28:37;;;;;;;3.97;1.40;;;;;;;;;;4973300;28;20615;-67
2022/05/30 10:31:08;;;;;;;1.77;1.50;;;;;;;;;;5071507;28;20225;-66
2022/05/30 10:33:51;;;;;;;1.83;1.20;;;;;;;;;;5055643;28;20192;-66
2022/05/30 10:36:49;;;;;;;3.43;1.40;;;;;;;;;;5056170;28;20186;-66
2022/05/30 10:39:18;;;;;;;1.30;1.20;;;;;;;;;;5019306;28;20672;-66
2022/05/30 10:41:52;;;;;;;1.37;1.27;;;;;;;;;;5074050;28;20619;-66
2022/05/30 10:44:29;;;;;;;3.07;1.40;;;;;;;;;;5073646;28;20158;-66
2022/05/30 10:47:03;;;;;;;5.03;1.37;;;;;;;;;;5055483;28;20178;-66
2022/05/30 10:49:38;;;;;;;2.20;1.30;;;;;;;;;;5055562;28;20181;-66
2022/05/30 10:52:22;;;;;;;1.80;1.17;;;;;;;;;;5054530;28;20212;-67
2022/05/30 10:54:57;;;;;;;3.43;1.30;;;;;;;;;;5073401;28;20176;-66
2022/05/30 10:57:35;;;;;;;1.00;1.00;;;;;;;;;;5073332;28;20222;-66
2022/05/30 11:00:05;;;;;;;2.63;1.23;;;;;;;;;;5073454;28;20220;-66
2022/05/30 11:02:43;;;;;;;0.90;0.90;;;;;;;;;;5073058;28;20185;-66
2022/05/30 11:05:17;;;;;;;2.07;1.23;;;;;;;;;;5055158;28;20181;-67
2022/05/30 11:07:47;;;;;;;2.20;1.17;;;;;;;;;;5055152;28;20185;-66
2022/05/30 11:10:18;;;;;;;2.17;1.00;;;;;;;;;;5072965;28;20201;-66
2022/05/30 11:12:46;;;;;;;2.37;1.30;;;;;;;;;;5073384;28;20166;-66
2022/05/30 11:15:16;;;;;;;2.53;1.23;;;;;;;;;;5073140;28;20181;-68
2022/05/30 11:17:46;;;;;;;3.10;1.70;;;;;;;;;;5073225;28;20169;-66
2022/05/30 11:20:18;;;;;;;2.47;1.30;;;;;;;;;;5073059;28;20181;-66
2022/05/30 11:22:54;;;;;;;2.50;1.17;;;;;;;;;;5073010;28;20178;-66
2022/05/30 11:25:30;;;;;;;1.13;1.00;;;;;;;;;;5073284;28;20521;-66
2022/05/30 11:28:12;;;;;;;1.80;1.00;;;;;;;;;;5073314;28;20162;-67
2022/05/30 11:30:44;;;;;;;3.67;1.10;;;;;;;;;;5054776;28;20213;-66
2022/05/30 11:33:43;;;;;;;1.10;0.90;;;;;;;;;;5072922;28;20239;-66
2022/05/30 11:36:40;;;;;;;2.47;1.00;;;;;;;;;;5029646;28;20192;-66
2022/05/30 11:39:12;;;;;;;1.03;1.00;;;;;;;;;;5073150;28;20169;-66
2022/05/30 11:42:04;;;;;;;1.37;1.10;;;;;;;;;;5054881;28;20205;-66
2022/05/30 11:44:30;;;;;;;1.40;0.90;;;;;;;;;;5073038;28;20163;-66
2022/05/30 11:47:01;;;;;;;1.63;1.10;;;;;;;;;;5072800;28;20193;-66
2022/05/30 11:49:34;;;;;;;1.60;1.10;;;;;;;;;;5073101;28;20188;-67
2022/05/30 11:52:03;;;;;;;2.10;1.07;;;;;;;;;;5054997;28;20220;-66
2022/05/30 11:54:48;;;;;;;1.73;1.13;;;;;;;;;;5073008;28;20178;-67
2022/05/30 11:57:26;;;;;;;2.53;1.40;;;;;;;;;;5073038;28;20308;-66
2022/05/30 12:00:07;;;;;;;2.03;1.10;;;;;;;;;;5072725;28;20173;-66
2022/05/30 12:02:52;;;;;;;1.37;1.20;;;;;;;;;;5073401;28;20182;-67
2022/05/30 12:05:17;;;;;;;1.70;1.20;;;;;;;;;;5058555;28;20185;-66
2022/05/30 12:08:02;;;;;;;2.90;1.23;;;;;;;;;;5076331;28;20171;-67
2022/05/30 12:10:46;;;;;;;5.67;1.10;;;;;;;;;;5076154;28;20210;-66
2022/05/30 12:13:30;;;;;;;1.90;1.30;;;;;;;;;;5076585;28;20158;-66
2022/05/30 12:16:21;;;;;;;2.00;1.40;;;;;;;;;;5058366;28;20185;-67
2022/05/30 12:24:19;;;;;;;2.73;1.33;;;;;;;;;;5076323;28;20231;-66
2022/05/30 12:26:48;;;;;;;1.67;1.27;;;;;;;;;;5076323;28;20177;-66
2022/05/30 12:29:33;;;;;;;1.77;1.40;;;;;;;;;;5058142;28;20269;-66
2022/05/30 12:32:16;;;;;;;3.60;1.33;;;;;;;;;;5075863;28;20211;-66
2022/05/30 12:35:00;;;;;;;2.90;1.20;;;;;;;;;;5057848;28;20185;-66
2022/05/30 12:37:47;;;;;;;2.60;1.13;;;;;;;;;;5076134;28;20703;-67
2022/05/30 12:40:25;;;;;;;1.90;1.40;;;;;;;;;;5075984;28;20165;-66
2022/05/30 12:43:10;;;;;;;2.43;1.30;;;;;;;;;;5057769;28;20178;-66
2022/05/30 12:45:42;;;;;;;1.70;1.07;;;;;;;;;;5076144;28;20534;-67
2022/05/30 12:48:13;;;;;;;1.60;1.13;;;;;;;;;;5075889;28;20177;-68
2022/05/30 12:50:43;;;;;;;2.17;1.33;;;;;;;;;;5075440;28;20685;-67
2022/05/30 12:53:09;;;;;;;2.23;1.00;;;;;;;;;;5075592;28;20177;-66
2022/05/30 12:55:40;;;;;;;2.17;1.10;;;;;;;;;;5075824;28;20178;-66
2022/05/30 12:58:07;;;;;;;1.50;1.10;;;;;;;;;;5057451;28;20205;-67
2022/05/30 13:00:36;;;;;;;2.73;1.07;;;;;;;;;;5075315;28;20697;-67
2022/05/30 13:03:03;;;;;;;3.93;1.20;;;;;;;;;;5057505;28;20182;-66
2022/05/30 13:05:44;;;;;;;2.10;1.27;;;;;;;;;;5075452;28;20170;-67
2022/05/30 13:08:28;;;;;;;2.47;1.30;;;;;;;;;;5075209;28;20645;-66
2022/05/30 13:10:56;;;;;;;1.00;0.90;;;;;;;;;;5075442;28;20275;-66
2022/05/30 13:13:25;;;;;;;2.17;1.33;;;;;;;;;;5057221;28;20178;-66
2022/05/30 13:15:56;;;;;;;2.10;1.13;;;;;;;;;;5074379;28;20181;-66
2022/05/30 13:18:22;;;;;;;1.93;1.27;;;;;;;;;;5075659;28;20537;-67
2022/05/30 13:20:50;;;;;;;1.43;1.10;;;;;;;;;;5075006;28;20213;-67
2022/05/30 13:23:16;;;;;;;2.13;1.20;;;;;;;;;;5075382;28;20199;-66
2022/05/30 13:25:47;;;;;;;1.40;1.30;;;;;;;;;;5075190;28;20173;-66
2022/05/30 13:28:30;;;;;;;1.30;1.20;;;;;;;;;;5074910;28;20178;-67
2022/05/30 13:30:58;;;;;;;2.70;1.30;;;;;;;;;;5074786;28;20209;-67
2022/05/30 13:33:39;;;;;;;1.53;1.10;;;;;;;;;;5074817;28;20180;-66
2022/05/30 13:36:06;;;;;;;1.53;1.13;;;;;;;;;;5074932;28;20257;-66
2022/05/30 13:38:39;;;;;;;2.63;1.60;;;;;;;;;;5074742;28;20231;-66
2022/05/30 13:41:15;;;;;;;3.27;1.70;;;;;;;;;;5074700;28;20205;-66
2022/05/30 13:43:42;;;;;;;2.00;1.10;;;;;;;;;;5056658;28;20193;-66
2022/05/30 13:46:08;;;;;;;1.70;1.20;;;;;;;;;;5074520;28;20620;-66
2022/05/30 13:48:34;;;;;;;3.00;1.40;;;;;;;;;;5074564;28;20587;-66
2022/05/30 13:51:02;;;;;;;2.53;1.30;;;;;;;;;;5074606;28;20292;-66
2022/05/30 13:53:28;;;;;;;1.77;1.20;;;;;;;;;;5074635;28;20177;-66
2022/05/30 13:55:56;;;;;;;2.50;1.20;;;;;;;;;;5074424;28;20174;-66
2022/05/30 13:58:23;;;;;;;1.87;1.30;;;;;;;;;;5074305;28;20185;-66
2022/05/30 14:00:49;;;;;;;1.40;1.27;;;;;;;;;;5074101;28;20296;-66
2022/05/30 14:03:15;;;;;;;3.00;1.10;;;;;;;;;;5074293;28;20680;-66
2022/05/30 14:05:43;;;;;;;1.57;1.20;;;;;;;;;;5056230;28;20188;-66
2022/05/30 14:08:34;;;;;;;1.87;1.30;;;;;;;;;;5074148;28;20661;-66
2022/05/30 14:11:06;;;;;;;2.13;1.17;;;;;;;;;;5056009;28;20209;-66
2022/05/30 14:13:59;;;;;;;1.23;1.10;;;;;;;;;;5074173;28;20174;-66
2022/05/30 14:16:39;;;;;;;1.47;1.30;;;;;;;;;;5053844;28;20553;-66
2022/05/30 14:19:09;;;;;;;1.97;1.30;;;;;;;;;;5073863;28;20181;-67
2022/05/30 14:21:37;;;;;;;2.67;1.20;;;;;;;;;;5073778;28;20193;-66
2022/05/30 14:24:14;;;;;;;2.67;1.30;;;;;;;;;;5073913;28;20642;-67
2022/05/30 14:26:40;;;;;;;1.10;1.00;;;;;;;;;;5055808;28;20201;-67
2022/05/30 14:29:08;;;;;;;4.73;1.10;;;;;;;;;;5074554;28;20231;-67
2022/05/30 14:31:34;;;;;;;2.70;1.50;;;;;;;;;;5073632;28;20213;-66
2022/05/30 14:34:15;;;;;;;1.80;1.20;;;;;;;;;;5073661;28;20181;-66
2022/05/30 14:36:40;;;;;;;1.33;1.20;;;;;;;;;;5055529;28;20269;-67
2022/05/30 14:39:20;;;;;;;3.03;1.33;;;;;;;;;;5073497;28;20249;-66
2022/05/30 14:41:59;;;;;;;1.27;1.00;;;;;;;;;;5073564;28;20208;-67
2022/05/30 14:44:29;;;;;;;1.40;1.10;;;;;;;;;;5073423;28;20242;-66
2022/05/30 14:46:55;;;;;;;1.70;1.10;;;;;;;;;;5073608;28;20230;-66
2022/05/30 14:49:27;;;;;;;1.77;1.50;;;;;;;;;;5073502;28;20242;-66
2022/05/30 14:51:57;;;;;;;1.50;1.10;;;;;;;;;;5073177;28;20209;-66
2022/05/30 14:54:31;;;;;;;2.53;1.50;;;;;;;;;;5073577;28;20202;-66
2022/05/30 14:56:59;;;;;;;1.23;1.13;;;;;;;;;;5055678;28;20230;-67
2022/05/30 14:59:33;;;;;;;2.20;1.30;;;;;;;;;;5055234;28;20259;-66
2022/05/30 15:01:59;;;;;;;1.57;1.13;;;;;;;;;;5073151;28;20346;-65
2022/05/30 15:04:25;;;;;;;3.40;1.10;;;;;;;;;;5073253;28;20264;-66
2022/05/30 15:07:08;;;;;;;1.37;1.00;;;;;;;;;;5073606;28;20177;-66
2022/05/30 15:09:34;;;;;;;4.17;1.30;;;;;;;;;;5073237;28;20166;-66
2022/05/30 15:12:00;;;;;;;3.80;1.20;;;;;;;;;;5073077;28;20213;-66
2022/05/30 15:14:27;;;;;;;2.10;1.40;;;;;;;;;;5073693;28;20208;-66
2022/05/30 15:16:54;;;;;;;1.93;1.30;;;;;;;;;;5055316;28;20170;-66
2022/05/30 15:19:21;;;;;;;1.73;1.17;;;;;;;;;;5073046;28;20174;-66
2022/05/30 15:21:52;;;;;;;1.47;1.23;;;;;;;;;;5073335;28;20536;-66
2022/05/30 15:24:19;;;;;;;3.17;1.27;;;;;;;;;;5072953;28;20261;-66